B12G9 VMMC-ZGHA
Flight info
| Callsign | B12G9 |
|---|---|
| Flight time | 2h 23m |
| Altitude | 8900 |
| Route | IDUMA A461 MEXON |
| Aircraft | DA42/L-SDFGRY/C |
Departure
| Time | 2026-04-29 10:55 |
|---|---|
| Airport | Macau International Airport (VMMC) |
Arrival
| Time | 2026-04-29 13:19 |
|---|---|
| Airport | Changsha Huanghua International Airport (ZGHA) |
| Time | Latitude | Longitude | Altitude | Speed | Heading |
|---|---|---|---|---|---|
| 2026-04-29 10:27 | 22.15431 | 113.57358 | 23 ft | 0 kts | 241° |
| 2026-04-29 10:43 | 22.15428 | 113.57351 | 23 ft | 5 kts | 241° |
| 2026-04-29 10:44 | 22.15420 | 113.57307 | 23 ft | 7 kts | 326° |
| 2026-04-29 10:44 | 22.15456 | 113.57290 | 23 ft | 6 kts | 2° |
| 2026-04-29 10:44 | 22.15481 | 113.57322 | 23 ft | 6 kts | 61° |
| 2026-04-29 10:44 | 22.15504 | 113.57371 | 23 ft | 8 kts | 63° |
| 2026-04-29 10:45 | 22.15534 | 113.57432 | 23 ft | 10 kts | 60° |
| 2026-04-29 10:45 | 22.15570 | 113.57499 | 23 ft | 11 kts | 57° |
| 2026-04-29 10:45 | 22.15615 | 113.57564 | 23 ft | 11 kts | 63° |
| 2026-04-29 10:45 | 22.15584 | 113.57651 | 23 ft | 17 kts | 122° |
| 2026-04-29 10:46 | 22.15509 | 113.57774 | 23 ft | 22 kts | 126° |
| 2026-04-29 10:46 | 22.15426 | 113.57908 | 23 ft | 21 kts | 123° |
| 2026-04-29 10:46 | 22.15347 | 113.58035 | 23 ft | 20 kts | 123° |
| 2026-04-29 10:46 | 22.15266 | 113.58165 | 23 ft | 21 kts | 124° |
| 2026-04-29 10:47 | 22.15182 | 113.58302 | 23 ft | 22 kts | 123° |
| 2026-04-29 10:47 | 22.15094 | 113.58443 | 23 ft | 23 kts | 123° |
| 2026-04-29 10:47 | 22.15004 | 113.58588 | 23 ft | 24 kts | 124° |
| 2026-04-29 10:47 | 22.14913 | 113.58737 | 23 ft | 24 kts | 124° |
| 2026-04-29 10:48 | 22.14820 | 113.58887 | 23 ft | 24 kts | 123° |
| 2026-04-29 10:48 | 22.14728 | 113.59034 | 23 ft | 20 kts | 134° |
| 2026-04-29 10:48 | 22.14620 | 113.59075 | 23 ft | 17 kts | 158° |
| 2026-04-29 10:48 | 22.14490 | 113.59123 | 23 ft | 22 kts | 160° |
| 2026-04-29 10:49 | 22.14346 | 113.59177 | 23 ft | 22 kts | 161° |
| 2026-04-29 10:49 | 22.14208 | 113.59227 | 23 ft | 20 kts | 160° |
| 2026-04-29 10:49 | 22.14080 | 113.59275 | 23 ft | 19 kts | 161° |
| 2026-04-29 10:49 | 22.13954 | 113.59321 | 23 ft | 19 kts | 161° |
| 2026-04-29 10:50 | 22.13830 | 113.59367 | 23 ft | 18 kts | 161° |
| 2026-04-29 10:50 | 22.13712 | 113.59410 | 23 ft | 18 kts | 161° |
| 2026-04-29 10:50 | 22.13594 | 113.59453 | 23 ft | 14 kts | 162° |
| 2026-04-29 10:50 | 22.13561 | 113.59474 | 23 ft | 3 kts | 126° |
| 2026-04-29 10:51 | 22.13557 | 113.59479 | 23 ft | 0 kts | 127° |
| 2026-04-29 10:52 | 22.13547 | 113.59493 | 23 ft | 9 kts | 126° |
| 2026-04-29 10:53 | 22.13498 | 113.59569 | 23 ft | 15 kts | 122° |
| 2026-04-29 10:53 | 22.13527 | 113.59652 | 23 ft | 11 kts | 15° |
| 2026-04-29 10:53 | 22.13583 | 113.59644 | 23 ft | 5 kts | 341° |
| 2026-04-29 10:53 | 22.13589 | 113.59642 | 23 ft | 0 kts | 342° |
| 2026-04-29 10:54 | 22.13660 | 113.59617 | 23 ft | 30 kts | 340° |
| 2026-04-29 10:55 | 22.14021 | 113.59483 | 32 ft | 76 kts | 341° |
| 2026-04-29 10:55 | 22.14567 | 113.59248 | 212 ft | 87 kts | 341° |
| 2026-04-29 10:55 | 22.15116 | 113.59000 | 576 ft | 85 kts | 339° |
| 2026-04-29 10:55 | 22.15681 | 113.58798 | 813 ft | 90 kts | 4° |
| 2026-04-29 10:56 | 22.16260 | 113.59087 | 1005 ft | 99 kts | 53° |
| 2026-04-29 10:56 | 22.16403 | 113.59311 | 1092 ft | 97 kts | 71° |
| 2026-04-29 10:56 | 22.16782 | 113.59935 | 1344 ft | 105 kts | 45° |
| 2026-04-29 10:56 | 22.17439 | 113.60289 | 1632 ft | 106 kts | 24° |
| 2026-04-29 10:57 | 22.18133 | 113.60568 | 1894 ft | 107 kts | 22° |
| 2026-04-29 10:57 | 22.18846 | 113.60841 | 2154 ft | 110 kts | 23° |
| 2026-04-29 10:57 | 22.19566 | 113.61113 | 2429 ft | 111 kts | 22° |
| 2026-04-29 10:57 | 22.20304 | 113.61391 | 2691 ft | 114 kts | 21° |
| 2026-04-29 10:58 | 22.21067 | 113.61673 | 2960 ft | 114 kts | 15° |
| 2026-04-29 10:58 | 22.21815 | 113.61950 | 3219 ft | 116 kts | 21° |
| 2026-04-29 10:58 | 22.22578 | 113.62256 | 3469 ft | 117 kts | 22° |
| 2026-04-29 10:58 | 22.23345 | 113.62571 | 3724 ft | 118 kts | 22° |
| 2026-04-29 10:59 | 22.24123 | 113.62874 | 3990 ft | 119 kts | 19° |
| 2026-04-29 10:59 | 22.24899 | 113.63179 | 4271 ft | 119 kts | 15° |
| 2026-04-29 10:59 | 22.25737 | 113.63454 | 4379 ft | 136 kts | 18° |
| 2026-04-29 10:59 | 22.26661 | 113.63785 | 4598 ft | 140 kts | 18° |
| 2026-04-29 11:00 | 22.27280 | 113.64011 | 4789 ft | 140 kts | 18° |
| 2026-04-29 11:00 | 22.28193 | 113.64385 | 5031 ft | 141 kts | 32° |
| 2026-04-29 11:00 | 22.29219 | 113.65242 | 5366 ft | 141 kts | 40° |
| 2026-04-29 11:00 | 22.29990 | 113.65899 | 5619 ft | 142 kts | 40° |
| 2026-04-29 11:01 | 22.30503 | 113.66339 | 5788 ft | 142 kts | 40° |
| 2026-04-29 11:01 | 22.31275 | 113.67002 | 6052 ft | 142 kts | 40° |
| 2026-04-29 11:01 | 22.32048 | 113.67667 | 6301 ft | 142 kts | 40° |
| 2026-04-29 11:01 | 22.32823 | 113.68333 | 6545 ft | 143 kts | 40° |
| 2026-04-29 11:02 | 22.33601 | 113.69002 | 6799 ft | 143 kts | 40° |
| 2026-04-29 11:02 | 22.34380 | 113.69672 | 7049 ft | 143 kts | 39° |
| 2026-04-29 11:02 | 22.35162 | 113.70345 | 7293 ft | 144 kts | 39° |
| 2026-04-29 11:02 | 22.35947 | 113.71020 | 7544 ft | 144 kts | 38° |
| 2026-04-29 11:03 | 22.36733 | 113.71695 | 7798 ft | 145 kts | 38° |
| 2026-04-29 11:03 | 22.37527 | 113.72379 | 8052 ft | 146 kts | 38° |
| 2026-04-29 11:03 | 22.38322 | 113.73063 | 8303 ft | 147 kts | 38° |
| 2026-04-29 11:03 | 22.39122 | 113.73751 | 8567 ft | 147 kts | 38° |
| 2026-04-29 11:04 | 22.39925 | 113.74443 | 8835 ft | 148 kts | 37° |
| 2026-04-29 11:04 | 22.40728 | 113.75134 | 9106 ft | 148 kts | 37° |
| 2026-04-29 11:04 | 22.41580 | 113.75870 | 9087 ft | 164 kts | 37° |
| 2026-04-29 11:04 | 22.42501 | 113.76663 | 9015 ft | 174 kts | 37° |
| 2026-04-29 11:05 | 22.43466 | 113.77492 | 8961 ft | 180 kts | 37° |
| 2026-04-29 11:05 | 22.44428 | 113.78376 | 8913 ft | 183 kts | 43° |
| 2026-04-29 11:05 | 22.45395 | 113.79289 | 8862 ft | 185 kts | 39° |
| 2026-04-29 11:05 | 22.46381 | 113.80195 | 8819 ft | 187 kts | 40° |
| 2026-04-29 11:06 | 22.47367 | 113.81120 | 8783 ft | 187 kts | 40° |
| 2026-04-29 11:06 | 22.48342 | 113.82042 | 8780 ft | 185 kts | 40° |
| 2026-04-29 11:06 | 22.49311 | 113.82958 | 8778 ft | 184 kts | 40° |
| 2026-04-29 11:06 | 22.50274 | 113.83867 | 8776 ft | 183 kts | 40° |
| 2026-04-29 11:07 | 22.51234 | 113.84773 | 8776 ft | 183 kts | 40° |
| 2026-04-29 11:07 | 22.52193 | 113.85679 | 8776 ft | 183 kts | 40° |
| 2026-04-29 11:07 | 22.53149 | 113.86581 | 8776 ft | 182 kts | 40° |
| 2026-04-29 11:07 | 22.54103 | 113.87482 | 8777 ft | 182 kts | 40° |
| 2026-04-29 11:08 | 22.55054 | 113.88381 | 8775 ft | 182 kts | 40° |
| 2026-04-29 11:08 | 22.56010 | 113.89285 | 8773 ft | 183 kts | 40° |
| 2026-04-29 11:08 | 22.56953 | 113.90176 | 8775 ft | 183 kts | 40° |
| 2026-04-29 11:08 | 22.57912 | 113.91081 | 8774 ft | 182 kts | 40° |
| 2026-04-29 11:09 | 22.58865 | 113.91982 | 8775 ft | 182 kts | 39° |
| 2026-04-29 11:09 | 22.59821 | 113.92886 | 8779 ft | 182 kts | 40° |
| 2026-04-29 11:09 | 22.60774 | 113.93789 | 8778 ft | 182 kts | 40° |
| 2026-04-29 11:09 | 22.61727 | 113.94690 | 8776 ft | 182 kts | 40° |
| 2026-04-29 11:10 | 22.62682 | 113.95594 | 8780 ft | 182 kts | 40° |
| 2026-04-29 11:10 | 22.63637 | 113.96497 | 8788 ft | 183 kts | 40° |
| 2026-04-29 11:10 | 22.64594 | 113.97404 | 8778 ft | 183 kts | 39° |
| 2026-04-29 11:10 | 22.65551 | 113.98309 | 8780 ft | 182 kts | 40° |
| 2026-04-29 11:11 | 22.66505 | 113.99212 | 8778 ft | 182 kts | 40° |
| 2026-04-29 11:11 | 22.67457 | 114.00115 | 8780 ft | 182 kts | 40° |
| 2026-04-29 11:11 | 22.68411 | 114.01016 | 8783 ft | 182 kts | 40° |
| 2026-04-29 11:11 | 22.69362 | 114.01919 | 8782 ft | 182 kts | 40° |
| 2026-04-29 11:12 | 22.70395 | 114.02686 | 8784 ft | 180 kts | 19° |
| 2026-04-29 11:12 | 22.71596 | 114.02946 | 8780 ft | 174 kts | 354° |
| 2026-04-29 11:12 | 22.72754 | 114.02689 | 8778 ft | 168 kts | 331° |
| 2026-04-29 11:12 | 22.73839 | 114.02209 | 8782 ft | 169 kts | 332° |
| 2026-04-29 11:13 | 22.74923 | 114.01730 | 8779 ft | 168 kts | 332° |
| 2026-04-29 11:13 | 22.76006 | 114.01247 | 8794 ft | 168 kts | 332° |
| 2026-04-29 11:13 | 22.77089 | 114.00763 | 8793 ft | 168 kts | 332° |
| 2026-04-29 11:13 | 22.78170 | 114.00281 | 8795 ft | 168 kts | 332° |
| 2026-04-29 11:14 | 22.79254 | 113.99799 | 8795 ft | 168 kts | 332° |
| 2026-04-29 11:14 | 22.80332 | 113.99318 | 8796 ft | 168 kts | 331° |
| 2026-04-29 11:14 | 22.81411 | 113.98837 | 8794 ft | 167 kts | 331° |
| 2026-04-29 11:14 | 22.82488 | 113.98357 | 8795 ft | 167 kts | 331° |
| 2026-04-29 11:15 | 22.83561 | 113.97880 | 8794 ft | 167 kts | 331° |
| 2026-04-29 11:15 | 22.84637 | 113.97399 | 8795 ft | 167 kts | 332° |
| 2026-04-29 11:15 | 22.85711 | 113.96920 | 8795 ft | 167 kts | 331° |
| 2026-04-29 11:15 | 22.86784 | 113.96443 | 8802 ft | 166 kts | 331° |
| 2026-04-29 11:16 | 22.87853 | 113.95965 | 8803 ft | 166 kts | 331° |
| 2026-04-29 11:16 | 22.88935 | 113.95481 | 8797 ft | 167 kts | 331° |
| 2026-04-29 11:16 | 22.89982 | 113.94982 | 8796 ft | 166 kts | 326° |
| 2026-04-29 11:16 | 22.91023 | 113.94435 | 8797 ft | 166 kts | 328° |
| 2026-04-29 11:17 | 22.92064 | 113.93904 | 8798 ft | 166 kts | 328° |
| 2026-04-29 11:17 | 22.93107 | 113.93365 | 8797 ft | 166 kts | 328° |
| 2026-04-29 11:17 | 22.94152 | 113.92822 | 8799 ft | 166 kts | 328° |
| 2026-04-29 11:17 | 22.95186 | 113.92284 | 8796 ft | 166 kts | 328° |
| 2026-04-29 11:18 | 22.96227 | 113.91741 | 8805 ft | 166 kts | 328° |
| 2026-04-29 11:18 | 22.97268 | 113.91200 | 8809 ft | 166 kts | 328° |
| 2026-04-29 11:18 | 22.98308 | 113.90658 | 8799 ft | 166 kts | 328° |
| 2026-04-29 11:18 | 22.99350 | 113.90116 | 8803 ft | 166 kts | 328° |
| 2026-04-29 11:19 | 23.00391 | 113.89574 | 8798 ft | 166 kts | 328° |
| 2026-04-29 11:19 | 23.01431 | 113.89032 | 8798 ft | 166 kts | 328° |
| 2026-04-29 11:19 | 23.02472 | 113.88490 | 8799 ft | 166 kts | 328° |
| 2026-04-29 11:19 | 23.03510 | 113.87949 | 8802 ft | 165 kts | 328° |
| 2026-04-29 11:20 | 23.04547 | 113.87409 | 8799 ft | 166 kts | 328° |
| 2026-04-29 11:20 | 23.05593 | 113.86863 | 8803 ft | 168 kts | 328° |
| 2026-04-29 11:20 | 23.06649 | 113.86313 | 8803 ft | 169 kts | 328° |
| 2026-04-29 11:20 | 23.07716 | 113.85756 | 8804 ft | 170 kts | 328° |
| 2026-04-29 11:21 | 23.08786 | 113.85199 | 8805 ft | 171 kts | 328° |
| 2026-04-29 11:21 | 23.09898 | 113.84718 | 8804 ft | 173 kts | 334° |
| 2026-04-29 11:21 | 23.11028 | 113.84272 | 8804 ft | 173 kts | 334° |
| 2026-04-29 11:21 | 23.12160 | 113.83825 | 8803 ft | 173 kts | 334° |
| 2026-04-29 11:22 | 23.13293 | 113.83379 | 8808 ft | 173 kts | 334° |
| 2026-04-29 11:22 | 23.14427 | 113.82935 | 8805 ft | 173 kts | 334° |
| 2026-04-29 11:22 | 23.15562 | 113.82489 | 8808 ft | 173 kts | 334° |
| 2026-04-29 11:22 | 23.16697 | 113.82043 | 8808 ft | 173 kts | 334° |
| 2026-04-29 11:23 | 23.17832 | 113.81597 | 8807 ft | 173 kts | 334° |
| 2026-04-29 11:23 | 23.18968 | 113.81150 | 8814 ft | 173 kts | 334° |
| 2026-04-29 11:23 | 23.20082 | 113.80712 | 8809 ft | 173 kts | 334° |
| 2026-04-29 11:23 | 23.21213 | 113.80267 | 8812 ft | 172 kts | 334° |
| 2026-04-29 11:24 | 23.22340 | 113.79824 | 8811 ft | 172 kts | 334° |
| 2026-04-29 11:24 | 23.23468 | 113.79380 | 8812 ft | 173 kts | 334° |
| 2026-04-29 11:24 | 23.24599 | 113.78935 | 8820 ft | 173 kts | 334° |
| 2026-04-29 11:24 | 23.25730 | 113.78490 | 8818 ft | 173 kts | 334° |
| 2026-04-29 11:25 | 23.26864 | 113.78044 | 8815 ft | 173 kts | 334° |
| 2026-04-29 11:25 | 23.27992 | 113.77600 | 8816 ft | 172 kts | 334° |
| 2026-04-29 11:25 | 23.29120 | 113.77156 | 8816 ft | 173 kts | 334° |
| 2026-04-29 11:25 | 23.30251 | 113.76710 | 8815 ft | 173 kts | 334° |
| 2026-04-29 11:26 | 23.32518 | 113.75817 | 8815 ft | 172 kts | 334° |
| 2026-04-29 11:26 | 23.33640 | 113.75376 | 8815 ft | 171 kts | 334° |
| 2026-04-29 11:26 | 23.34761 | 113.74932 | 8823 ft | 172 kts | 334° |
| 2026-04-29 11:27 | 23.35889 | 113.74488 | 8815 ft | 173 kts | 334° |
| 2026-04-29 11:27 | 23.37018 | 113.74044 | 8814 ft | 172 kts | 334° |
| 2026-04-29 11:27 | 23.38143 | 113.73600 | 8826 ft | 172 kts | 334° |
| 2026-04-29 11:27 | 23.39270 | 113.73155 | 8817 ft | 172 kts | 334° |
| 2026-04-29 11:28 | 23.40395 | 113.72711 | 8816 ft | 172 kts | 333° |
| 2026-04-29 11:28 | 23.41517 | 113.72269 | 8816 ft | 171 kts | 333° |
| 2026-04-29 11:28 | 23.42600 | 113.71842 | 8820 ft | 172 kts | 334° |
| 2026-04-29 11:28 | 23.43726 | 113.71397 | 8822 ft | 172 kts | 333° |
| 2026-04-29 11:29 | 23.44856 | 113.70951 | 8824 ft | 172 kts | 334° |
| 2026-04-29 11:29 | 23.45975 | 113.70508 | 8819 ft | 171 kts | 333° |
| 2026-04-29 11:29 | 23.47098 | 113.70066 | 8824 ft | 171 kts | 333° |
| 2026-04-29 11:29 | 23.48218 | 113.69623 | 8822 ft | 171 kts | 333° |
| 2026-04-29 11:30 | 23.49339 | 113.69181 | 8820 ft | 170 kts | 333° |
| 2026-04-29 11:30 | 23.50455 | 113.68738 | 8828 ft | 170 kts | 334° |
| 2026-04-29 11:30 | 23.51574 | 113.68297 | 8829 ft | 171 kts | 334° |
| 2026-04-29 11:30 | 23.52696 | 113.67854 | 8827 ft | 172 kts | 334° |
| 2026-04-29 11:31 | 23.53819 | 113.67410 | 8832 ft | 171 kts | 334° |
| 2026-04-29 11:31 | 23.54935 | 113.66969 | 8832 ft | 170 kts | 333° |
| 2026-04-29 11:31 | 23.56030 | 113.66535 | 8834 ft | 170 kts | 334° |
| 2026-04-29 11:31 | 23.57143 | 113.66095 | 8835 ft | 171 kts | 334° |
| 2026-04-29 11:32 | 23.58277 | 113.65645 | 8836 ft | 171 kts | 334° |
| 2026-04-29 11:32 | 23.59386 | 113.65207 | 8838 ft | 172 kts | 334° |
| 2026-04-29 11:32 | 23.60515 | 113.64761 | 8833 ft | 173 kts | 334° |
| 2026-04-29 11:32 | 23.61644 | 113.64314 | 8836 ft | 173 kts | 334° |
| 2026-04-29 11:33 | 23.62767 | 113.63869 | 8835 ft | 172 kts | 334° |
| 2026-04-29 11:33 | 23.63893 | 113.63424 | 8834 ft | 172 kts | 334° |
| 2026-04-29 11:33 | 23.65021 | 113.62976 | 8842 ft | 172 kts | 334° |
| 2026-04-29 11:33 | 23.66150 | 113.62529 | 8843 ft | 173 kts | 334° |
| 2026-04-29 11:34 | 23.67281 | 113.62082 | 8842 ft | 173 kts | 334° |
| 2026-04-29 11:34 | 23.68414 | 113.61632 | 8844 ft | 173 kts | 334° |
| 2026-04-29 11:34 | 23.69545 | 113.61182 | 8845 ft | 173 kts | 333° |
| 2026-04-29 11:34 | 23.70677 | 113.60735 | 8843 ft | 173 kts | 334° |
| 2026-04-29 11:35 | 23.71816 | 113.60284 | 8843 ft | 174 kts | 334° |
| 2026-04-29 11:35 | 23.72943 | 113.59838 | 8847 ft | 173 kts | 334° |
| 2026-04-29 11:35 | 23.74072 | 113.59391 | 8847 ft | 172 kts | 334° |
| 2026-04-29 11:35 | 23.75194 | 113.58945 | 8848 ft | 172 kts | 334° |
| 2026-04-29 11:36 | 23.76319 | 113.58498 | 8846 ft | 172 kts | 334° |
| 2026-04-29 11:36 | 23.77442 | 113.58052 | 8847 ft | 171 kts | 334° |
| 2026-04-29 11:36 | 23.78560 | 113.57608 | 8851 ft | 171 kts | 334° |
| 2026-04-29 11:36 | 23.79680 | 113.57163 | 8850 ft | 171 kts | 334° |
| 2026-04-29 11:37 | 23.80802 | 113.56718 | 8861 ft | 172 kts | 334° |
| 2026-04-29 11:37 | 23.81926 | 113.56272 | 8860 ft | 172 kts | 334° |
| 2026-04-29 11:37 | 23.83050 | 113.55824 | 8856 ft | 173 kts | 334° |
| 2026-04-29 11:37 | 23.84183 | 113.55374 | 8867 ft | 174 kts | 334° |
| 2026-04-29 11:38 | 23.85320 | 113.54924 | 8861 ft | 173 kts | 334° |
| 2026-04-29 11:38 | 23.86451 | 113.54474 | 8858 ft | 173 kts | 334° |
| 2026-04-29 11:38 | 23.87579 | 113.54025 | 8859 ft | 173 kts | 334° |
| 2026-04-29 11:38 | 23.88706 | 113.53577 | 8858 ft | 173 kts | 334° |
| 2026-04-29 11:39 | 23.89821 | 113.53133 | 8858 ft | 173 kts | 334° |
| 2026-04-29 11:39 | 23.90947 | 113.52686 | 8860 ft | 173 kts | 334° |
| 2026-04-29 11:39 | 23.92077 | 113.52236 | 8859 ft | 172 kts | 334° |
| 2026-04-29 11:39 | 23.93202 | 113.51787 | 8867 ft | 172 kts | 334° |
| 2026-04-29 11:40 | 23.94327 | 113.51341 | 8868 ft | 172 kts | 334° |
| 2026-04-29 11:40 | 23.95458 | 113.50891 | 8865 ft | 174 kts | 334° |
| 2026-04-29 11:40 | 23.96597 | 113.50437 | 8860 ft | 173 kts | 335° |
| 2026-04-29 11:40 | 23.97720 | 113.49992 | 8859 ft | 171 kts | 335° |
| 2026-04-29 11:41 | 23.98838 | 113.49545 | 8863 ft | 172 kts | 334° |
| 2026-04-29 11:41 | 23.99961 | 113.49097 | 8860 ft | 172 kts | 335° |
| 2026-04-29 11:41 | 24.01083 | 113.48651 | 8863 ft | 171 kts | 335° |
| 2026-04-29 11:41 | 24.02203 | 113.48205 | 8863 ft | 171 kts | 335° |
| 2026-04-29 11:42 | 24.03323 | 113.47758 | 8864 ft | 171 kts | 335° |
| 2026-04-29 11:42 | 24.04440 | 113.47312 | 8866 ft | 171 kts | 335° |
| 2026-04-29 11:42 | 24.05562 | 113.46865 | 8868 ft | 171 kts | 335° |
| 2026-04-29 11:42 | 24.06683 | 113.46418 | 8867 ft | 172 kts | 335° |
| 2026-04-29 11:43 | 24.07808 | 113.45970 | 8873 ft | 172 kts | 335° |
| 2026-04-29 11:43 | 24.08940 | 113.45517 | 8870 ft | 174 kts | 335° |
| 2026-04-29 11:43 | 24.10079 | 113.45062 | 8870 ft | 174 kts | 335° |
| 2026-04-29 11:43 | 24.11220 | 113.44608 | 8871 ft | 174 kts | 335° |
| 2026-04-29 11:44 | 24.12353 | 113.44157 | 8870 ft | 173 kts | 335° |
| 2026-04-29 11:44 | 24.13484 | 113.43705 | 8873 ft | 173 kts | 335° |
| 2026-04-29 11:44 | 24.14614 | 113.43254 | 8875 ft | 173 kts | 335° |
| 2026-04-29 11:44 | 24.15743 | 113.42803 | 8878 ft | 172 kts | 335° |
| 2026-04-29 11:45 | 24.16864 | 113.42355 | 8873 ft | 171 kts | 335° |
| 2026-04-29 11:45 | 24.17980 | 113.41909 | 8881 ft | 171 kts | 335° |
| 2026-04-29 11:45 | 24.19123 | 113.41543 | 8875 ft | 174 kts | 348° |
| 2026-04-29 11:45 | 24.20343 | 113.41547 | 8877 ft | 176 kts | 357° |
| 2026-04-29 11:46 | 24.21565 | 113.41584 | 8884 ft | 175 kts | 357° |
| 2026-04-29 11:46 | 24.22371 | 113.41610 | 8883 ft | 175 kts | 357° |
| 2026-04-29 11:46 | 24.23592 | 113.41650 | 8893 ft | 175 kts | 357° |
| 2026-04-29 11:46 | 24.25224 | 113.41706 | 8882 ft | 175 kts | 357° |
| 2026-04-29 11:47 | 24.26033 | 113.41733 | 8881 ft | 176 kts | 357° |
| 2026-04-29 11:47 | 24.27669 | 113.41787 | 8884 ft | 176 kts | 357° |
| 2026-04-29 11:47 | 24.28895 | 113.41829 | 8885 ft | 177 kts | 357° |
| 2026-04-29 11:47 | 24.30127 | 113.41869 | 8894 ft | 177 kts | 357° |
| 2026-04-29 11:48 | 24.30941 | 113.41897 | 8886 ft | 177 kts | 357° |
| 2026-04-29 11:48 | 24.32170 | 113.41938 | 8891 ft | 177 kts | 356° |
| 2026-04-29 11:48 | 24.33398 | 113.41979 | 8894 ft | 176 kts | 356° |
| 2026-04-29 11:48 | 24.34624 | 113.42019 | 8903 ft | 176 kts | 356° |
| 2026-04-29 11:49 | 24.35846 | 113.42056 | 8894 ft | 176 kts | 356° |
| 2026-04-29 11:49 | 24.37070 | 113.42087 | 8909 ft | 176 kts | 356° |
| 2026-04-29 11:49 | 24.38295 | 113.42119 | 8896 ft | 176 kts | 356° |
| 2026-04-29 11:49 | 24.39520 | 113.42152 | 8906 ft | 176 kts | 356° |
| 2026-04-29 11:50 | 24.40747 | 113.42186 | 8900 ft | 176 kts | 356° |
| 2026-04-29 11:50 | 24.41978 | 113.42218 | 8904 ft | 177 kts | 356° |
| 2026-04-29 11:50 | 24.43205 | 113.42252 | 8899 ft | 176 kts | 355° |
| 2026-04-29 11:50 | 24.44428 | 113.42286 | 8908 ft | 176 kts | 355° |
| 2026-04-29 11:51 | 24.45653 | 113.42321 | 8904 ft | 177 kts | 355° |
| 2026-04-29 11:51 | 24.46892 | 113.42356 | 8910 ft | 180 kts | 355° |
| 2026-04-29 11:51 | 24.48143 | 113.42395 | 8906 ft | 180 kts | 355° |
| 2026-04-29 11:51 | 24.49372 | 113.42427 | 8899 ft | 179 kts | 355° |
| 2026-04-29 11:52 | 24.50615 | 113.42461 | 8908 ft | 179 kts | 355° |
| 2026-04-29 11:52 | 24.51863 | 113.42496 | 8908 ft | 180 kts | 356° |
| 2026-04-29 11:52 | 24.53110 | 113.42534 | 8906 ft | 178 kts | 355° |
| 2026-04-29 11:52 | 24.54341 | 113.42571 | 8906 ft | 176 kts | 355° |
| 2026-04-29 11:53 | 24.55566 | 113.42605 | 8907 ft | 176 kts | 356° |
| 2026-04-29 11:53 | 24.56789 | 113.42638 | 8907 ft | 175 kts | 356° |
| 2026-04-29 11:53 | 24.58003 | 113.42670 | 8907 ft | 174 kts | 355° |
| 2026-04-29 11:53 | 24.59215 | 113.42704 | 8910 ft | 174 kts | 355° |
| 2026-04-29 11:54 | 24.60423 | 113.42742 | 8910 ft | 173 kts | 355° |
| 2026-04-29 11:54 | 24.61623 | 113.42775 | 8908 ft | 171 kts | 355° |
| 2026-04-29 11:54 | 24.62809 | 113.42807 | 8914 ft | 170 kts | 355° |
| 2026-04-29 11:54 | 24.64000 | 113.42841 | 8914 ft | 172 kts | 356° |
| 2026-04-29 11:55 | 24.65204 | 113.42876 | 8920 ft | 174 kts | 356° |
| 2026-04-29 11:55 | 24.66416 | 113.42910 | 8926 ft | 175 kts | 356° |
| 2026-04-29 11:55 | 24.67634 | 113.42944 | 8923 ft | 175 kts | 356° |
| 2026-04-29 11:55 | 24.68854 | 113.42980 | 8923 ft | 175 kts | 356° |
| 2026-04-29 11:56 | 24.70072 | 113.43013 | 8919 ft | 175 kts | 356° |
| 2026-04-29 11:56 | 24.71286 | 113.43048 | 8921 ft | 174 kts | 356° |
| 2026-04-29 11:56 | 24.72495 | 113.43082 | 8925 ft | 174 kts | 356° |
| 2026-04-29 11:56 | 24.73689 | 113.43117 | 8929 ft | 174 kts | 356° |
| 2026-04-29 11:57 | 24.74896 | 113.43151 | 8928 ft | 173 kts | 356° |
| 2026-04-29 11:57 | 24.76099 | 113.43185 | 8927 ft | 173 kts | 356° |
| 2026-04-29 11:57 | 24.77305 | 113.43218 | 8933 ft | 174 kts | 356° |
| 2026-04-29 11:57 | 24.78516 | 113.43253 | 8932 ft | 174 kts | 356° |
| 2026-04-29 11:58 | 24.79731 | 113.43289 | 8935 ft | 174 kts | 356° |
| 2026-04-29 11:58 | 24.80940 | 113.43323 | 8935 ft | 174 kts | 356° |
| 2026-04-29 11:58 | 24.82149 | 113.43358 | 8934 ft | 174 kts | 356° |
| 2026-04-29 11:58 | 24.83355 | 113.43391 | 8935 ft | 173 kts | 356° |
| 2026-04-29 11:59 | 24.84560 | 113.43425 | 8933 ft | 173 kts | 356° |
| 2026-04-29 11:59 | 24.85767 | 113.43460 | 8935 ft | 173 kts | 356° |
| 2026-04-29 11:59 | 24.86963 | 113.43494 | 8938 ft | 172 kts | 356° |
| 2026-04-29 11:59 | 24.88153 | 113.43529 | 8934 ft | 170 kts | 356° |
| 2026-04-29 12:00 | 24.89339 | 113.43561 | 8936 ft | 170 kts | 356° |
| 2026-04-29 12:00 | 24.90523 | 113.43596 | 8937 ft | 170 kts | 356° |
| 2026-04-29 12:00 | 24.91703 | 113.43629 | 8937 ft | 170 kts | 356° |
| 2026-04-29 12:00 | 24.92871 | 113.43662 | 8939 ft | 170 kts | 356° |
| 2026-04-29 12:01 | 24.94051 | 113.43696 | 8941 ft | 169 kts | 356° |
| 2026-04-29 12:01 | 24.95229 | 113.43730 | 8938 ft | 169 kts | 356° |
| 2026-04-29 12:01 | 24.96408 | 113.43763 | 8941 ft | 170 kts | 356° |
| 2026-04-29 12:01 | 24.97589 | 113.43796 | 8942 ft | 170 kts | 356° |
| 2026-04-29 12:02 | 24.98771 | 113.43830 | 8945 ft | 170 kts | 356° |
| 2026-04-29 12:02 | 24.99953 | 113.43865 | 8945 ft | 170 kts | 356° |
| 2026-04-29 12:02 | 25.01138 | 113.43898 | 8945 ft | 170 kts | 356° |
| 2026-04-29 12:02 | 25.02322 | 113.43932 | 8942 ft | 170 kts | 356° |
| 2026-04-29 12:03 | 25.03505 | 113.43965 | 8943 ft | 170 kts | 356° |
| 2026-04-29 12:03 | 25.04690 | 113.44000 | 8945 ft | 170 kts | 356° |
| 2026-04-29 12:03 | 25.05876 | 113.44033 | 8946 ft | 171 kts | 356° |
| 2026-04-29 12:03 | 25.07065 | 113.44067 | 8964 ft | 170 kts | 356° |
| 2026-04-29 12:04 | 25.08251 | 113.44101 | 8958 ft | 171 kts | 356° |
| 2026-04-29 12:04 | 25.09436 | 113.44135 | 8960 ft | 170 kts | 356° |
| 2026-04-29 12:04 | 25.10623 | 113.44169 | 8961 ft | 170 kts | 356° |
| 2026-04-29 12:04 | 25.11807 | 113.44203 | 8960 ft | 170 kts | 356° |
| 2026-04-29 12:05 | 25.12993 | 113.44237 | 8961 ft | 170 kts | 356° |
| 2026-04-29 12:05 | 25.14173 | 113.44271 | 8962 ft | 170 kts | 356° |
| 2026-04-29 12:05 | 25.15353 | 113.44304 | 8962 ft | 169 kts | 356° |
| 2026-04-29 12:05 | 25.16531 | 113.44338 | 8966 ft | 169 kts | 356° |
| 2026-04-29 12:06 | 25.17690 | 113.44371 | 8967 ft | 169 kts | 356° |
| 2026-04-29 12:06 | 25.18872 | 113.44405 | 8966 ft | 170 kts | 356° |
| 2026-04-29 12:06 | 25.20054 | 113.44439 | 8966 ft | 169 kts | 356° |
| 2026-04-29 12:06 | 25.21227 | 113.44472 | 8968 ft | 168 kts | 356° |
| 2026-04-29 12:07 | 25.22396 | 113.44506 | 8970 ft | 167 kts | 356° |
| 2026-04-29 12:07 | 25.23560 | 113.44540 | 8973 ft | 168 kts | 356° |
| 2026-04-29 12:07 | 25.24726 | 113.44572 | 8968 ft | 167 kts | 356° |
| 2026-04-29 12:07 | 25.25888 | 113.44607 | 8972 ft | 167 kts | 356° |
| 2026-04-29 12:08 | 25.27041 | 113.44641 | 8965 ft | 164 kts | 356° |
| 2026-04-29 12:08 | 25.28172 | 113.44677 | 8957 ft | 160 kts | 356° |
| 2026-04-29 12:08 | 25.29278 | 113.44703 | 8966 ft | 159 kts | 356° |
| 2026-04-29 12:08 | 25.30392 | 113.44735 | 8976 ft | 163 kts | 356° |
| 2026-04-29 12:09 | 25.31542 | 113.44762 | 8977 ft | 167 kts | 356° |
| 2026-04-29 12:09 | 25.32713 | 113.44796 | 8993 ft | 170 kts | 356° |
| 2026-04-29 12:09 | 25.33901 | 113.44833 | 8980 ft | 172 kts | 356° |
| 2026-04-29 12:09 | 25.35093 | 113.44869 | 8977 ft | 171 kts | 356° |
| 2026-04-29 12:10 | 25.36274 | 113.44906 | 8972 ft | 168 kts | 356° |
| 2026-04-29 12:10 | 25.37443 | 113.44938 | 8985 ft | 170 kts | 356° |
| 2026-04-29 12:10 | 25.38634 | 113.44970 | 8986 ft | 172 kts | 356° |
| 2026-04-29 12:10 | 25.39829 | 113.45006 | 8985 ft | 172 kts | 356° |
| 2026-04-29 12:11 | 25.41031 | 113.45039 | 8986 ft | 173 kts | 356° |
| 2026-04-29 12:11 | 25.42208 | 113.45077 | 8981 ft | 165 kts | 356° |
| 2026-04-29 12:11 | 25.43326 | 113.45107 | 8992 ft | 161 kts | 356° |
| 2026-04-29 12:11 | 25.44452 | 113.45137 | 8989 ft | 163 kts | 356° |
| 2026-04-29 12:12 | 25.45586 | 113.45170 | 8990 ft | 163 kts | 356° |
| 2026-04-29 12:12 | 25.46723 | 113.45204 | 8988 ft | 164 kts | 356° |
| 2026-04-29 12:12 | 25.47863 | 113.45238 | 8992 ft | 164 kts | 356° |
| 2026-04-29 12:12 | 25.49004 | 113.45272 | 8996 ft | 165 kts | 356° |
| 2026-04-29 12:13 | 25.50156 | 113.45302 | 8994 ft | 166 kts | 357° |
| 2026-04-29 12:13 | 25.51312 | 113.45334 | 8994 ft | 166 kts | 356° |
| 2026-04-29 12:13 | 25.52472 | 113.45368 | 8996 ft | 167 kts | 357° |
| 2026-04-29 12:13 | 25.53634 | 113.45403 | 8996 ft | 167 kts | 357° |
| 2026-04-29 12:14 | 25.54791 | 113.45436 | 9002 ft | 166 kts | 356° |
| 2026-04-29 12:14 | 25.55955 | 113.45467 | 8996 ft | 168 kts | 357° |
| 2026-04-29 12:14 | 25.57115 | 113.45504 | 8985 ft | 165 kts | 357° |
| 2026-04-29 12:14 | 25.58249 | 113.45539 | 8997 ft | 166 kts | 356° |
| 2026-04-29 12:15 | 25.59404 | 113.45568 | 8994 ft | 166 kts | 357° |
| 2026-04-29 12:15 | 25.60552 | 113.45601 | 8995 ft | 165 kts | 357° |
| 2026-04-29 12:15 | 25.61695 | 113.45634 | 8998 ft | 164 kts | 357° |
| 2026-04-29 12:15 | 25.62832 | 113.45667 | 8997 ft | 163 kts | 356° |
| 2026-04-29 12:16 | 25.63965 | 113.45699 | 9001 ft | 163 kts | 357° |
| 2026-04-29 12:16 | 25.65107 | 113.45732 | 9003 ft | 166 kts | 357° |
| 2026-04-29 12:16 | 25.66269 | 113.45766 | 9006 ft | 168 kts | 357° |
| 2026-04-29 12:16 | 25.67444 | 113.45800 | 9004 ft | 169 kts | 357° |
| 2026-04-29 12:17 | 25.68610 | 113.45834 | 9004 ft | 167 kts | 356° |
| 2026-04-29 12:17 | 25.69770 | 113.45868 | 9005 ft | 166 kts | 357° |
| 2026-04-29 12:17 | 25.70930 | 113.45901 | 9007 ft | 167 kts | 357° |
| 2026-04-29 12:17 | 25.72093 | 113.45936 | 9004 ft | 168 kts | 357° |
| 2026-04-29 12:18 | 25.73258 | 113.45970 | 9006 ft | 168 kts | 357° |
| 2026-04-29 12:18 | 25.74424 | 113.46002 | 9011 ft | 167 kts | 357° |
| 2026-04-29 12:18 | 25.75590 | 113.46035 | 9005 ft | 168 kts | 356° |
| 2026-04-29 12:18 | 25.76757 | 113.46069 | 9009 ft | 167 kts | 357° |
| 2026-04-29 12:19 | 25.77921 | 113.46102 | 9007 ft | 168 kts | 357° |
| 2026-04-29 12:19 | 25.79091 | 113.46137 | 9012 ft | 169 kts | 357° |
| 2026-04-29 12:19 | 25.80266 | 113.46170 | 9010 ft | 170 kts | 357° |
| 2026-04-29 12:19 | 25.81448 | 113.46205 | 9012 ft | 169 kts | 357° |
| 2026-04-29 12:20 | 25.82622 | 113.46239 | 9013 ft | 169 kts | 357° |
| 2026-04-29 12:20 | 25.83799 | 113.46272 | 9012 ft | 169 kts | 356° |
| 2026-04-29 12:20 | 25.84972 | 113.46306 | 9015 ft | 169 kts | 357° |
| 2026-04-29 12:20 | 25.86150 | 113.46340 | 9015 ft | 170 kts | 357° |
| 2026-04-29 12:21 | 25.87332 | 113.46376 | 9016 ft | 169 kts | 358° |
| 2026-04-29 12:21 | 25.88511 | 113.46412 | 9017 ft | 170 kts | 358° |
| 2026-04-29 12:21 | 25.89692 | 113.46450 | 9015 ft | 170 kts | 358° |
| 2026-04-29 12:21 | 25.90871 | 113.46486 | 9015 ft | 169 kts | 358° |
| 2026-04-29 12:22 | 25.92043 | 113.46524 | 9012 ft | 167 kts | 358° |
| 2026-04-29 12:22 | 25.93210 | 113.46561 | 9018 ft | 168 kts | 358° |
| 2026-04-29 12:22 | 25.94383 | 113.46594 | 9017 ft | 169 kts | 358° |
| 2026-04-29 12:22 | 25.95551 | 113.46630 | 9015 ft | 167 kts | 358° |
| 2026-04-29 12:23 | 25.96711 | 113.46666 | 9018 ft | 167 kts | 358° |
| 2026-04-29 12:23 | 25.97876 | 113.46703 | 9016 ft | 167 kts | 358° |
| 2026-04-29 12:23 | 25.99038 | 113.46739 | 9014 ft | 167 kts | 358° |
| 2026-04-29 12:23 | 26.00186 | 113.46775 | 9019 ft | 167 kts | 358° |
| 2026-04-29 12:24 | 26.01354 | 113.46811 | 9021 ft | 168 kts | 358° |
| 2026-04-29 12:24 | 26.02521 | 113.46847 | 9021 ft | 168 kts | 358° |
| 2026-04-29 12:24 | 26.03693 | 113.46883 | 9023 ft | 169 kts | 358° |
| 2026-04-29 12:24 | 26.04871 | 113.46921 | 9020 ft | 170 kts | 358° |
| 2026-04-29 12:25 | 26.06050 | 113.46959 | 9014 ft | 168 kts | 359° |
| 2026-04-29 12:25 | 26.07206 | 113.46995 | 9017 ft | 165 kts | 358° |
| 2026-04-29 12:25 | 26.09508 | 113.47064 | 9015 ft | 165 kts | 358° |
| 2026-04-29 12:26 | 26.10659 | 113.47101 | 9021 ft | 166 kts | 358° |
| 2026-04-29 12:26 | 26.11815 | 113.47136 | 9019 ft | 167 kts | 358° |
| 2026-04-29 12:26 | 26.12975 | 113.47172 | 9020 ft | 167 kts | 358° |
| 2026-04-29 12:26 | 26.14138 | 113.47208 | 9015 ft | 167 kts | 359° |
| 2026-04-29 12:27 | 26.15293 | 113.47245 | 9022 ft | 167 kts | 358° |
| 2026-04-29 12:27 | 26.16456 | 113.47281 | 9020 ft | 167 kts | 359° |
| 2026-04-29 12:27 | 26.17620 | 113.47317 | 9023 ft | 168 kts | 358° |
| 2026-04-29 12:27 | 26.18789 | 113.47353 | 9023 ft | 168 kts | 358° |
| 2026-04-29 12:28 | 26.19960 | 113.47390 | 9021 ft | 168 kts | 358° |
| 2026-04-29 12:28 | 26.21134 | 113.47426 | 9023 ft | 168 kts | 358° |
| 2026-04-29 12:28 | 26.22305 | 113.47463 | 9025 ft | 169 kts | 359° |
| 2026-04-29 12:28 | 26.23480 | 113.47501 | 9023 ft | 169 kts | 359° |
| 2026-04-29 12:29 | 26.24646 | 113.47537 | 9021 ft | 170 kts | 358° |
| 2026-04-29 12:29 | 26.25820 | 113.47573 | 9022 ft | 169 kts | 358° |
| 2026-04-29 12:29 | 26.26999 | 113.47609 | 9026 ft | 169 kts | 358° |
| 2026-04-29 12:29 | 26.28178 | 113.47647 | 9023 ft | 169 kts | 358° |
| 2026-04-29 12:30 | 26.29354 | 113.47684 | 9024 ft | 169 kts | 358° |
| 2026-04-29 12:30 | 26.30532 | 113.47720 | 9025 ft | 169 kts | 358° |
| 2026-04-29 12:30 | 26.31711 | 113.47756 | 9028 ft | 170 kts | 359° |
| 2026-04-29 12:30 | 26.32891 | 113.47794 | 9030 ft | 170 kts | 359° |
| 2026-04-29 12:31 | 26.34074 | 113.47831 | 9024 ft | 170 kts | 359° |
| 2026-04-29 12:31 | 26.35257 | 113.47868 | 9026 ft | 170 kts | 359° |
| 2026-04-29 12:31 | 26.36434 | 113.47904 | 9032 ft | 169 kts | 359° |
| 2026-04-29 12:31 | 26.37604 | 113.47940 | 9028 ft | 168 kts | 359° |
| 2026-04-29 12:32 | 26.38772 | 113.47977 | 9030 ft | 168 kts | 359° |
| 2026-04-29 12:32 | 26.39948 | 113.48015 | 9031 ft | 168 kts | 359° |
| 2026-04-29 12:32 | 26.41117 | 113.48051 | 9028 ft | 168 kts | 359° |
| 2026-04-29 12:32 | 26.42281 | 113.48088 | 9029 ft | 167 kts | 359° |
| 2026-04-29 12:33 | 26.43446 | 113.48122 | 9029 ft | 167 kts | 359° |
| 2026-04-29 12:33 | 26.44607 | 113.48160 | 9030 ft | 167 kts | 359° |
| 2026-04-29 12:33 | 26.45768 | 113.48197 | 9033 ft | 167 kts | 359° |
| 2026-04-29 12:33 | 26.46931 | 113.48233 | 9030 ft | 167 kts | 359° |
| 2026-04-29 12:34 | 26.48087 | 113.48269 | 9031 ft | 167 kts | 359° |
| 2026-04-29 12:34 | 26.49247 | 113.48306 | 9032 ft | 167 kts | 359° |
| 2026-04-29 12:34 | 26.50410 | 113.48342 | 9033 ft | 167 kts | 359° |
| 2026-04-29 12:34 | 26.51565 | 113.48378 | 9029 ft | 166 kts | 359° |
| 2026-04-29 12:35 | 26.52332 | 113.48402 | 9031 ft | 166 kts | 359° |
| 2026-04-29 12:35 | 26.53484 | 113.48438 | 9030 ft | 166 kts | 359° |
| 2026-04-29 12:35 | 26.55026 | 113.48486 | 9034 ft | 166 kts | 359° |
| 2026-04-29 12:35 | 26.55791 | 113.48510 | 9033 ft | 166 kts | 359° |
| 2026-04-29 12:36 | 26.57333 | 113.48559 | 9035 ft | 165 kts | 359° |
| 2026-04-29 12:36 | 26.58482 | 113.48595 | 9035 ft | 165 kts | 359° |
| 2026-04-29 12:36 | 26.59631 | 113.48631 | 9034 ft | 165 kts | 359° |
| 2026-04-29 12:36 | 26.60392 | 113.48655 | 9033 ft | 165 kts | 359° |
| 2026-04-29 12:37 | 26.61541 | 113.48691 | 9033 ft | 165 kts | 359° |
| 2026-04-29 12:37 | 26.62690 | 113.48727 | 9036 ft | 165 kts | 359° |
| 2026-04-29 12:37 | 26.63838 | 113.48763 | 9036 ft | 165 kts | 359° |
| 2026-04-29 12:37 | 26.65363 | 113.48811 | 9035 ft | 165 kts | 359° |
| 2026-04-29 12:38 | 26.66143 | 113.48836 | 9035 ft | 165 kts | 359° |
| 2026-04-29 12:38 | 26.67295 | 113.48872 | 9037 ft | 165 kts | 359° |
| 2026-04-29 12:38 | 26.68334 | 113.48905 | 9037 ft | 165 kts | 359° |
| 2026-04-29 12:38 | 26.69482 | 113.48940 | 9035 ft | 165 kts | 359° |
| 2026-04-29 12:39 | 26.70629 | 113.48976 | 9037 ft | 165 kts | 359° |
| 2026-04-29 12:39 | 26.71779 | 113.49012 | 9035 ft | 165 kts | 360° |
| 2026-04-29 12:39 | 26.72914 | 113.49048 | 9037 ft | 165 kts | 360° |
| 2026-04-29 12:39 | 26.74062 | 113.49085 | 9036 ft | 165 kts | 360° |
| 2026-04-29 12:40 | 26.75213 | 113.49121 | 9036 ft | 165 kts | 360° |
| 2026-04-29 12:40 | 26.76359 | 113.49156 | 9036 ft | 165 kts | 360° |
| 2026-04-29 12:40 | 26.77499 | 113.49190 | 9037 ft | 164 kts | 360° |
| 2026-04-29 12:40 | 26.78635 | 113.49228 | 9038 ft | 163 kts | 360° |
| 2026-04-29 12:41 | 26.79767 | 113.49265 | 9040 ft | 163 kts | 360° |
| 2026-04-29 12:41 | 26.80903 | 113.49301 | 9035 ft | 164 kts | 360° |
| 2026-04-29 12:41 | 26.82045 | 113.49336 | 9036 ft | 164 kts | 360° |
| 2026-04-29 12:41 | 26.83188 | 113.49372 | 9036 ft | 165 kts | 360° |
| 2026-04-29 12:42 | 26.84334 | 113.49408 | 9038 ft | 165 kts | 360° |
| 2026-04-29 12:42 | 26.85483 | 113.49444 | 9038 ft | 165 kts | 360° |
| 2026-04-29 12:42 | 26.86630 | 113.49481 | 9037 ft | 165 kts | 360° |
| 2026-04-29 12:42 | 26.87777 | 113.49517 | 9039 ft | 165 kts | 360° |
| 2026-04-29 12:43 | 26.88922 | 113.49552 | 9037 ft | 164 kts | 360° |
| 2026-04-29 12:43 | 26.90062 | 113.49587 | 9037 ft | 164 kts | 360° |
| 2026-04-29 12:43 | 26.91205 | 113.49625 | 9038 ft | 165 kts | 0° |
| 2026-04-29 12:43 | 26.92349 | 113.49661 | 9038 ft | 165 kts | 360° |
| 2026-04-29 12:44 | 26.93500 | 113.49697 | 9037 ft | 165 kts | 0° |
| 2026-04-29 12:44 | 26.94645 | 113.49733 | 9037 ft | 165 kts | 0° |
| 2026-04-29 12:44 | 26.95787 | 113.49769 | 9039 ft | 164 kts | 0° |
| 2026-04-29 12:44 | 26.96934 | 113.49806 | 9039 ft | 165 kts | 0° |
| 2026-04-29 12:45 | 26.98083 | 113.49842 | 9038 ft | 165 kts | 0° |
| 2026-04-29 12:45 | 26.99232 | 113.49878 | 9037 ft | 165 kts | 0° |
| 2026-04-29 12:45 | 27.00378 | 113.49914 | 9041 ft | 165 kts | 0° |
| 2026-04-29 12:45 | 27.01528 | 113.49951 | 9037 ft | 165 kts | 0° |
| 2026-04-29 12:46 | 27.02659 | 113.49986 | 9040 ft | 165 kts | 0° |
| 2026-04-29 12:46 | 27.03803 | 113.50022 | 9041 ft | 164 kts | 0° |
| 2026-04-29 12:46 | 27.04944 | 113.50058 | 9040 ft | 164 kts | 0° |
| 2026-04-29 12:46 | 27.06078 | 113.50095 | 9037 ft | 163 kts | 0° |
| 2026-04-29 12:47 | 27.07206 | 113.50130 | 9041 ft | 163 kts | 0° |
| 2026-04-29 12:47 | 27.08341 | 113.50166 | 9039 ft | 163 kts | 0° |
| 2026-04-29 12:47 | 27.09480 | 113.50202 | 9041 ft | 164 kts | 0° |
| 2026-04-29 12:47 | 27.10618 | 113.50238 | 9041 ft | 164 kts | 0° |
| 2026-04-29 12:48 | 27.11754 | 113.50275 | 9042 ft | 163 kts | 0° |
| 2026-04-29 12:48 | 27.12891 | 113.50310 | 9039 ft | 163 kts | 0° |
| 2026-04-29 12:48 | 27.14025 | 113.50346 | 9040 ft | 163 kts | 0° |
| 2026-04-29 12:48 | 27.15159 | 113.50382 | 9043 ft | 163 kts | 0° |
| 2026-04-29 12:49 | 27.16291 | 113.50418 | 9039 ft | 163 kts | 0° |
| 2026-04-29 12:49 | 27.17424 | 113.50453 | 9041 ft | 163 kts | 0° |
| 2026-04-29 12:49 | 27.18557 | 113.50489 | 9042 ft | 163 kts | 0° |
| 2026-04-29 12:49 | 27.19689 | 113.50526 | 9040 ft | 163 kts | 0° |
| 2026-04-29 12:50 | 27.20824 | 113.50562 | 9039 ft | 163 kts | 0° |
| 2026-04-29 12:50 | 27.21955 | 113.50598 | 9041 ft | 163 kts | 0° |
| 2026-04-29 12:50 | 27.23085 | 113.50633 | 9043 ft | 162 kts | 0° |
| 2026-04-29 12:50 | 27.24215 | 113.50669 | 9045 ft | 163 kts | 1° |
| 2026-04-29 12:51 | 27.25339 | 113.50568 | 9042 ft | 162 kts | 344° |
| 2026-04-29 12:51 | 27.26413 | 113.50175 | 9041 ft | 162 kts | 342° |
| 2026-04-29 12:51 | 27.27487 | 113.49786 | 9042 ft | 162 kts | 342° |
| 2026-04-29 12:51 | 27.28562 | 113.49394 | 9042 ft | 162 kts | 342° |
| 2026-04-29 12:52 | 27.29636 | 113.49001 | 9044 ft | 162 kts | 342° |
| 2026-04-29 12:52 | 27.30707 | 113.48609 | 9043 ft | 162 kts | 342° |
| 2026-04-29 12:52 | 27.31778 | 113.48218 | 9043 ft | 162 kts | 342° |
| 2026-04-29 12:52 | 27.32848 | 113.47826 | 9041 ft | 161 kts | 342° |
| 2026-04-29 12:53 | 27.33913 | 113.47437 | 9042 ft | 161 kts | 342° |
| 2026-04-29 12:53 | 27.34981 | 113.47046 | 9045 ft | 161 kts | 342° |
| 2026-04-29 12:53 | 27.36049 | 113.46654 | 9046 ft | 162 kts | 342° |
| 2026-04-29 12:53 | 27.37120 | 113.46262 | 9046 ft | 162 kts | 342° |
| 2026-04-29 12:54 | 27.38192 | 113.45869 | 9045 ft | 162 kts | 342° |
| 2026-04-29 12:54 | 27.39263 | 113.45478 | 9045 ft | 162 kts | 342° |
| 2026-04-29 12:54 | 27.40328 | 113.45087 | 9045 ft | 161 kts | 342° |
| 2026-04-29 12:54 | 27.41394 | 113.44697 | 9047 ft | 161 kts | 342° |
| 2026-04-29 12:55 | 27.42458 | 113.44307 | 9044 ft | 161 kts | 342° |
| 2026-04-29 12:55 | 27.43507 | 113.43922 | 9045 ft | 161 kts | 342° |
| 2026-04-29 12:55 | 27.44568 | 113.43533 | 9046 ft | 160 kts | 342° |
| 2026-04-29 12:55 | 27.45628 | 113.43145 | 9045 ft | 161 kts | 342° |
| 2026-04-29 12:56 | 27.46694 | 113.42754 | 9044 ft | 161 kts | 342° |
| 2026-04-29 12:56 | 27.47763 | 113.42362 | 9043 ft | 161 kts | 342° |
| 2026-04-29 12:56 | 27.48831 | 113.41970 | 9040 ft | 161 kts | 342° |
| 2026-04-29 12:56 | 27.49912 | 113.41629 | 9040 ft | 161 kts | 353° |
| 2026-04-29 12:57 | 27.51032 | 113.41599 | 9043 ft | 161 kts | 359° |
| 2026-04-29 12:57 | 27.52159 | 113.41580 | 9048 ft | 162 kts | 359° |
| 2026-04-29 12:57 | 27.53283 | 113.41563 | 9045 ft | 162 kts | 359° |
| 2026-04-29 12:57 | 27.54409 | 113.41547 | 9046 ft | 161 kts | 359° |
| 2026-04-29 12:58 | 27.55533 | 113.41532 | 9044 ft | 161 kts | 359° |
| 2026-04-29 12:58 | 27.56657 | 113.41517 | 9043 ft | 162 kts | 359° |
| 2026-04-29 12:58 | 27.57778 | 113.41502 | 9044 ft | 161 kts | 359° |
| 2026-04-29 12:58 | 27.58903 | 113.41486 | 9052 ft | 161 kts | 359° |
| 2026-04-29 12:59 | 27.60024 | 113.41471 | 9051 ft | 161 kts | 359° |
| 2026-04-29 12:59 | 27.61144 | 113.41453 | 9049 ft | 161 kts | 359° |
| 2026-04-29 12:59 | 27.62263 | 113.41436 | 9048 ft | 161 kts | 359° |
| 2026-04-29 12:59 | 27.63385 | 113.41419 | 9048 ft | 161 kts | 359° |
| 2026-04-29 13:00 | 27.64499 | 113.41402 | 9050 ft | 160 kts | 359° |
| 2026-04-29 13:00 | 27.65620 | 113.41406 | 8984 ft | 162 kts | 5° |
| 2026-04-29 13:00 | 27.66749 | 113.41516 | 8820 ft | 163 kts | 5° |
| 2026-04-29 13:00 | 27.67875 | 113.41612 | 8633 ft | 161 kts | 5° |
| 2026-04-29 13:01 | 27.68983 | 113.41709 | 8448 ft | 159 kts | 5° |
| 2026-04-29 13:01 | 27.70079 | 113.41805 | 8264 ft | 157 kts | 6° |
| 2026-04-29 13:01 | 27.71179 | 113.41903 | 7946 ft | 163 kts | 6° |
| 2026-04-29 13:01 | 27.72299 | 113.42002 | 7732 ft | 160 kts | 6° |
| 2026-04-29 13:02 | 27.73397 | 113.42099 | 7538 ft | 157 kts | 7° |
| 2026-04-29 13:02 | 27.74461 | 113.42193 | 7361 ft | 154 kts | 7° |
| 2026-04-29 13:02 | 27.75535 | 113.42288 | 7184 ft | 152 kts | 7° |
| 2026-04-29 13:02 | 27.76584 | 113.42381 | 7015 ft | 150 kts | 7° |
| 2026-04-29 13:03 | 27.77618 | 113.42473 | 6848 ft | 148 kts | 8° |
| 2026-04-29 13:03 | 27.78645 | 113.42565 | 6680 ft | 147 kts | 8° |
| 2026-04-29 13:03 | 27.79654 | 113.42654 | 6511 ft | 145 kts | 8° |
| 2026-04-29 13:03 | 27.80659 | 113.42744 | 6347 ft | 145 kts | 8° |
| 2026-04-29 13:04 | 27.81653 | 113.42749 | 6179 ft | 146 kts | 355° |
| 2026-04-29 13:04 | 27.82636 | 113.42359 | 6016 ft | 149 kts | 342° |
| 2026-04-29 13:04 | 27.83572 | 113.41905 | 5853 ft | 148 kts | 342° |
| 2026-04-29 13:04 | 27.84518 | 113.41445 | 5687 ft | 148 kts | 341° |
| 2026-04-29 13:05 | 27.85460 | 113.40985 | 5523 ft | 148 kts | 341° |
| 2026-04-29 13:05 | 27.86405 | 113.40522 | 5363 ft | 147 kts | 341° |
| 2026-04-29 13:05 | 27.87214 | 113.40128 | 5223 ft | 147 kts | 341° |
| 2026-04-29 13:05 | 27.88152 | 113.39672 | 5061 ft | 147 kts | 341° |
| 2026-04-29 13:06 | 27.89092 | 113.39212 | 4894 ft | 148 kts | 341° |
| 2026-04-29 13:06 | 27.90033 | 113.38751 | 4727 ft | 148 kts | 342° |
| 2026-04-29 13:06 | 27.90974 | 113.38291 | 4567 ft | 147 kts | 341° |
| 2026-04-29 13:06 | 27.91914 | 113.37832 | 4404 ft | 147 kts | 341° |
| 2026-04-29 13:07 | 27.92854 | 113.37373 | 4242 ft | 147 kts | 341° |
| 2026-04-29 13:07 | 27.93771 | 113.36878 | 4076 ft | 146 kts | 331° |
| 2026-04-29 13:07 | 27.94468 | 113.36057 | 3920 ft | 146 kts | 307° |
| 2026-04-29 13:07 | 27.94813 | 113.34997 | 3772 ft | 143 kts | 283° |
| 2026-04-29 13:08 | 27.94804 | 113.33870 | 3611 ft | 143 kts | 270° |
| 2026-04-29 13:08 | 27.94755 | 113.32740 | 3458 ft | 144 kts | 270° |
| 2026-04-29 13:08 | 27.94673 | 113.31604 | 3298 ft | 145 kts | 267° |
| 2026-04-29 13:08 | 27.94560 | 113.30473 | 3137 ft | 145 kts | 267° |
| 2026-04-29 13:09 | 27.94447 | 113.29343 | 2979 ft | 144 kts | 266° |
| 2026-04-29 13:09 | 27.94336 | 113.28218 | 2820 ft | 144 kts | 267° |
| 2026-04-29 13:09 | 27.94229 | 113.27191 | 2689 ft | 144 kts | 266° |
| 2026-04-29 13:09 | 27.94113 | 113.26071 | 2536 ft | 144 kts | 266° |
| 2026-04-29 13:10 | 27.93999 | 113.24943 | 2382 ft | 143 kts | 267° |
| 2026-04-29 13:10 | 27.93993 | 113.23850 | 2303 ft | 135 kts | 291° |
| 2026-04-29 13:10 | 27.94542 | 113.23097 | 2298 ft | 120 kts | 338° |
| 2026-04-29 13:10 | 27.95323 | 113.23057 | 2293 ft | 111 kts | 24° |
| 2026-04-29 13:11 | 27.95836 | 113.23654 | 2302 ft | 109 kts | 57° |
| 2026-04-29 13:11 | 27.96459 | 113.24100 | 2300 ft | 111 kts | 10° |
| 2026-04-29 13:11 | 27.97214 | 113.23881 | 2299 ft | 115 kts | 345° |
| 2026-04-29 13:11 | 27.97973 | 113.23657 | 2302 ft | 111 kts | 3° |
| 2026-04-29 13:12 | 27.98743 | 113.23600 | 2303 ft | 111 kts | 1° |
| 2026-04-29 13:12 | 27.99516 | 113.23552 | 2304 ft | 111 kts | 1° |
| 2026-04-29 13:12 | 28.00287 | 113.23504 | 2304 ft | 111 kts | 1° |
| 2026-04-29 13:12 | 28.01066 | 113.23456 | 2305 ft | 112 kts | 1° |
| 2026-04-29 13:13 | 28.01845 | 113.23407 | 2309 ft | 112 kts | 1° |
| 2026-04-29 13:13 | 28.02623 | 113.23363 | 2307 ft | 112 kts | 1° |
| 2026-04-29 13:13 | 28.03400 | 113.23316 | 2302 ft | 111 kts | 1° |
| 2026-04-29 13:13 | 28.04168 | 113.23269 | 2305 ft | 110 kts | 1° |
| 2026-04-29 13:14 | 28.04931 | 113.23222 | 2308 ft | 110 kts | 1° |
| 2026-04-29 13:14 | 28.05693 | 113.23175 | 2306 ft | 110 kts | 1° |
| 2026-04-29 13:14 | 28.06457 | 113.23128 | 2306 ft | 110 kts | 1° |
| 2026-04-29 13:14 | 28.07208 | 113.23080 | 2250 ft | 103 kts | 1° |
| 2026-04-29 13:15 | 28.07880 | 113.23037 | 2115 ft | 92 kts | 2° |
| 2026-04-29 13:15 | 28.08515 | 113.22999 | 1997 ft | 92 kts | 1° |
| 2026-04-29 13:15 | 28.09156 | 113.22959 | 1871 ft | 92 kts | 1° |
| 2026-04-29 13:15 | 28.09797 | 113.22923 | 1746 ft | 93 kts | 1° |
| 2026-04-29 13:16 | 28.10446 | 113.22884 | 1616 ft | 93 kts | 1° |
| 2026-04-29 13:16 | 28.11087 | 113.22845 | 1490 ft | 91 kts | 1° |
| 2026-04-29 13:16 | 28.11708 | 113.22807 | 1375 ft | 88 kts | 0° |
| 2026-04-29 13:16 | 28.12316 | 113.22769 | 1252 ft | 87 kts | 0° |
| 2026-04-29 13:17 | 28.12921 | 113.22730 | 1128 ft | 87 kts | 359° |
| 2026-04-29 13:17 | 28.13517 | 113.22691 | 1019 ft | 86 kts | 359° |
| 2026-04-29 13:17 | 28.14115 | 113.22655 | 900 ft | 86 kts | 358° |
| 2026-04-29 13:17 | 28.14710 | 113.22625 | 791 ft | 86 kts | 359° |
| 2026-04-29 13:18 | 28.15310 | 113.22588 | 673 ft | 86 kts | 359° |
| 2026-04-29 13:18 | 28.15901 | 113.22545 | 577 ft | 85 kts | 359° |
| 2026-04-29 13:18 | 28.16484 | 113.22511 | 461 ft | 84 kts | 358° |
| 2026-04-29 13:18 | 28.17055 | 113.22474 | 347 ft | 81 kts | 359° |
| 2026-04-29 13:19 | 28.17600 | 113.22444 | 221 ft | 74 kts | 360° |
| 2026-04-29 13:19 | 28.18010 | 113.22422 | 209 ft | 47 kts | 356° |
| 2026-04-29 13:19 | 28.18301 | 113.22404 | 212 ft | 38 kts | 357° |
| 2026-04-29 13:19 | 28.18567 | 113.22387 | 213 ft | 39 kts | 357° |
| 2026-04-29 13:20 | 28.18838 | 113.22370 | 211 ft | 40 kts | 357° |
| 2026-04-29 13:20 | 28.19068 | 113.22348 | 210 ft | 26 kts | 345° |
| 2026-04-29 13:20 | 28.19219 | 113.22281 | 214 ft | 25 kts | 330° |
| 2026-04-29 13:20 | 28.19371 | 113.22180 | 209 ft | 23 kts | 329° |
| 2026-04-29 13:21 | 28.19495 | 113.22136 | 209 ft | 13 kts | 355° |
| 2026-04-29 13:21 | 28.19558 | 113.22080 | 209 ft | 3 kts | 293° |
| 2026-04-29 13:21 | 28.19605 | 113.22114 | 209 ft | 15 kts | 32° |
| 2026-04-29 13:21 | 28.19738 | 113.22122 | 209 ft | 23 kts | 357° |
| 2026-04-29 13:22 | 28.19914 | 113.22111 | 209 ft | 27 kts | 356° |
| 2026-04-29 13:22 | 28.20071 | 113.22082 | 209 ft | 14 kts | 302° |
| 2026-04-29 13:22 | 28.20073 | 113.21979 | 210 ft | 16 kts | 268° |
| 2026-04-29 13:22 | 28.20066 | 113.21835 | 209 ft | 19 kts | 266° |
| 2026-04-29 13:23 | 28.20073 | 113.21726 | 210 ft | 11 kts | 323° |
| 2026-04-29 13:23 | 28.20157 | 113.21713 | 214 ft | 14 kts | 356° |
| 2026-04-29 13:23 | 28.20270 | 113.21706 | 208 ft | 18 kts | 356° |
| 2026-04-29 13:23 | 28.20398 | 113.21698 | 208 ft | 18 kts | 357° |
| 2026-04-29 13:24 | 28.20524 | 113.21690 | 209 ft | 18 kts | 356° |
| 2026-04-29 13:24 | 28.20620 | 113.21664 | 209 ft | 9 kts | 320° |
| 2026-04-29 13:24 | 28.20639 | 113.21597 | 208 ft | 10 kts | 267° |
| 2026-04-29 13:24 | 28.20635 | 113.21545 | 208 ft | 10 kts | 265° |
| 2026-04-29 13:25 | 28.20660 | 113.21504 | 209 ft | 8 kts | 357° |
| 2026-04-29 13:25 | 28.20702 | 113.21560 | 208 ft | 5 kts | 88° |
| 2026-04-29 13:25 | 28.20703 | 113.21569 | 208 ft | 0 kts | 87° |